createdAt,value
2019-04-10T00:00:07.776Z,80.86
2019-04-10T00:02:37.810Z,80.80
2019-04-10T00:05:07.648Z,81.05
2019-04-10T00:07:39.687Z,81.37
2019-04-10T00:10:09.745Z,81.15
2019-04-10T00:12:40.349Z,80.05
2019-04-10T00:15:12.716Z,79.52
2019-04-10T00:17:45.086Z,77.84
2019-04-10T00:20:16.218Z,78.10
2019-04-10T00:22:46.528Z,77.24
2019-04-10T00:25:17.070Z,77.82
2019-04-10T00:27:48.216Z,76.56
2019-04-10T00:30:20.725Z,76.60
2019-04-10T00:32:50.619Z,76.20
2019-04-10T00:35:23.501Z,75.87
2019-04-10T00:37:55.530Z,74.81
2019-04-10T00:40:28.022Z,74.45
2019-04-10T00:42:59.330Z,75.13
2019-04-10T00:45:29.948Z,75.57
2019-04-10T00:47:59.583Z,76.10
2019-04-10T00:50:29.231Z,75.42
2019-04-10T00:53:03.429Z,74.69
2019-04-10T00:55:32.889Z,76.65
2019-04-10T00:58:03.681Z,76.19
2019-04-10T01:00:37.517Z,76.28
2019-04-10T01:03:07.563Z,76.90
2019-04-10T01:05:37.711Z,77.61
2019-04-10T01:08:08.704Z,77.78
2019-04-10T01:10:38.800Z,77.52
2019-04-10T01:14:05.463Z,76.11
2019-04-10T01:16:35.843Z,76.57
2019-04-10T01:19:05.821Z,75.70
2019-04-10T01:21:35.275Z,75.19
2019-04-10T01:24:05.758Z,75.44
2019-04-10T01:26:35.066Z,76.23
2019-04-10T01:29:05.151Z,77.24
2019-04-10T01:31:37.284Z,78.21
2019-04-10T01:34:07.506Z,78.56
2019-04-10T01:36:37.477Z,78.58
2019-04-10T01:39:10.437Z,79.36
2019-04-10T01:41:39.936Z,79.04
2019-04-10T01:44:11.052Z,78.83
2019-04-10T01:46:42.603Z,78.63
2019-04-10T01:49:13.874Z,79.38
2019-04-10T01:51:45.781Z,79.18
2019-04-10T01:54:15.209Z,78.98
2019-04-10T01:56:48.215Z,78.84
2019-04-10T01:59:23.627Z,78.21
2019-04-10T02:02:07.224Z,78.80
2019-04-10T02:04:36.959Z,77.90
2019-04-10T02:07:11.535Z,78.84
2019-04-10T02:09:41.634Z,78.90
2019-04-10T02:12:14.636Z,78.62
2019-04-10T02:14:44.713Z,77.82
2019-04-10T02:17:14.740Z,77.73
2019-04-10T02:19:48.259Z,77.36
2019-04-10T02:22:17.884Z,78.23
2019-04-10T02:25:28.425Z,77.83
2019-04-10T02:27:58.543Z,76.86
2019-04-10T02:30:30.282Z,78.20
2019-04-10T02:33:02.064Z,78.46
2019-04-10T02:35:34.203Z,77.82
2019-04-10T02:38:21.166Z,77.25
2019-04-10T02:40:37.360Z,77.92
2019-04-10T02:43:08.354Z,77.79
2019-04-10T02:45:40.366Z,77.54
2019-04-10T02:48:12.153Z,77.93
2019-04-10T02:50:45.003Z,78.71
2019-04-10T02:53:15.304Z,80.78
2019-04-10T02:55:45.223Z,80.51
2019-04-10T02:58:16.035Z,84.18
2019-04-10T03:00:46.400Z,83.91
2019-04-10T03:03:16.159Z,82.12
2019-04-10T03:05:46.663Z,81.17
2019-04-10T03:08:17.403Z,80.02
2019-04-10T03:10:53.551Z,79.14
2019-04-10T03:13:19.804Z,78.55
2019-04-10T03:15:51.694Z,78.12
2019-04-10T03:18:23.122Z,77.32
2019-04-10T03:20:55.115Z,77.07
2019-04-10T03:23:25.205Z,76.83
2019-04-10T03:25:54.711Z,75.95
2019-04-10T03:28:24.970Z,75.44
2019-04-10T03:30:56.501Z,74.68
2019-04-10T03:33:47.238Z,74.33
2019-04-10T03:36:15.631Z,73.92
2019-04-10T03:38:56.752Z,73.49
2019-04-10T03:41:24.146Z,73.51
2019-04-10T03:43:54.761Z,72.81
2019-04-10T03:46:24.200Z,72.44
2019-04-10T03:48:57.748Z,71.21
2019-04-10T03:51:30.303Z,71.32
2019-04-10T03:54:00.038Z,71.14
2019-04-10T03:56:34.388Z,70.90
2019-04-10T03:59:04.166Z,71.26
2019-04-10T04:01:35.320Z,71.39
2019-04-10T04:04:07.192Z,70.85
2019-04-10T04:06:37.212Z,70.91
2019-04-10T04:09:11.942Z,71.23
2019-04-10T04:11:41.999Z,70.73
2019-04-10T04:14:14.454Z,70.64
2019-04-10T04:16:45.444Z,71.08
2019-04-10T04:19:17.712Z,70.81
2019-04-10T04:21:56.367Z,70.94
2019-04-10T04:24:26.636Z,71.21
2019-04-10T04:26:58.584Z,69.19
2019-04-10T04:29:28.783Z,67.73
2019-04-10T04:31:59.117Z,68.01
2019-04-10T04:34:31.757Z,67.90
2019-04-10T04:37:01.111Z,68.49
2019-04-10T04:39:31.542Z,69.25
2019-04-10T04:42:03.047Z,69.03
2019-04-10T04:44:33.313Z,69.65
2019-04-10T04:47:06.399Z,70.61
2019-04-10T04:49:37.820Z,69.86
2019-04-10T04:52:11.817Z,69.46
2019-04-10T04:54:44.045Z,68.79
2019-04-10T04:57:14.693Z,69.25
2019-04-10T04:59:48.518Z,69.43
2019-04-10T05:02:20.025Z,68.75
2019-04-10T05:04:53.516Z,69.44
2019-04-10T05:07:26.374Z,69.09
2019-04-10T05:09:56.709Z,68.93
2019-04-10T05:12:27.706Z,66.87
2019-04-10T05:15:09.571Z,66.70
2019-04-10T05:17:39.841Z,65.33
2019-04-10T05:20:11.253Z,65.57
2019-04-10T05:22:41.611Z,65.63
2019-04-10T05:25:13.263Z,64.65
2019-04-10T05:27:44.748Z,64.52
2019-04-10T05:30:14.462Z,64.27
2019-04-10T05:32:45.914Z,63.65
2019-04-10T05:35:17.563Z,62.82
2019-04-10T05:37:48.420Z,63.35
2019-04-10T05:40:19.922Z,62.53
2019-04-10T05:42:49.248Z,62.91
2019-04-10T05:45:18.594Z,62.92
2019-04-10T05:47:48.199Z,61.93
2019-04-10T05:50:19.909Z,61.78
2019-04-10T05:52:49.688Z,62.15
2019-04-10T05:55:20.356Z,61.99
2019-04-10T05:57:51.390Z,61.17
2019-04-10T06:00:22.975Z,61.45
2019-04-10T06:02:52.851Z,61.19
2019-04-10T06:05:22.410Z,60.80
2019-04-10T06:07:52.334Z,61.78
2019-04-10T06:10:23.004Z,61.37
2019-04-10T06:12:53.021Z,60.11
2019-04-10T06:15:23.201Z,60.83
2019-04-10T06:17:54.432Z,61.42
2019-04-10T06:20:25.099Z,60.85
2019-04-10T06:22:59.022Z,60.91
2019-04-10T06:25:28.880Z,60.16
2019-04-10T06:27:59.680Z,60.52
2019-04-10T06:30:30.581Z,60.15
2019-04-10T06:33:00.118Z,60.62
2019-04-10T06:35:30.599Z,60.73
2019-04-10T06:38:02.256Z,59.90
2019-04-10T06:40:31.984Z,60.23
2019-04-10T06:43:06.496Z,59.76
2019-04-10T06:45:36.697Z,60.13
2019-04-10T06:48:07.552Z,59.48
2019-04-10T06:50:37.165Z,59.41
2019-04-10T06:53:08.713Z,59.54
2019-04-10T06:55:40.906Z,58.50
2019-04-10T06:58:12.388Z,57.21
2019-04-10T07:00:46.668Z,55.30
2019-04-10T07:03:14.889Z,54.20
2019-04-10T07:06:00.506Z,55.08
2019-04-10T07:08:22.475Z,55.34
2019-04-10T07:11:01.992Z,55.87
2019-04-10T07:13:26.047Z,55.52
2019-04-10T07:15:58.067Z,54.31
2019-04-10T07:18:26.675Z,54.37
2019-04-10T07:21:01.503Z,54.49
2019-04-10T07:23:31.866Z,53.24
2019-04-10T07:26:01.742Z,53.62
2019-04-10T07:28:31.759Z,53.26
2019-04-10T07:31:05.333Z,53.50
2019-04-10T07:33:40.613Z,51.87
2019-04-10T07:36:14.143Z,47.42
2019-04-10T07:38:43.498Z,42.87
2019-04-10T07:41:19.413Z,41.33
2019-04-10T07:43:44.760Z,38.92
2019-04-10T07:46:15.233Z,37.60
2019-04-10T07:48:45.573Z,39.13
2019-04-10T07:51:15.335Z,36.00
2019-04-10T07:53:45.170Z,34.03
2019-04-10T07:56:18.014Z,33.51
2019-04-10T07:58:48.257Z,36.09
2019-04-10T08:01:19.936Z,35.42
2019-04-10T08:03:51.395Z,36.39
2019-04-10T08:06:21.043Z,39.69
2019-04-10T08:08:51.278Z,39.49
2019-04-10T08:11:21.902Z,38.24
2019-04-10T08:13:53.289Z,37.49
2019-04-10T08:16:27.447Z,37.11
2019-04-10T08:18:57.911Z,35.26
2019-04-10T08:21:29.459Z,36.12
2019-04-10T08:24:00.581Z,38.02
2019-04-10T08:26:30.404Z,34.83
2019-04-10T08:29:02.202Z,34.38
2019-04-10T08:31:34.492Z,31.87
2019-04-10T08:34:04.003Z,30.06
2019-04-10T08:36:35.306Z,30.97
2019-04-10T08:39:07.154Z,31.44
2019-04-10T08:41:37.268Z,31.87
2019-04-10T08:44:06.892Z,32.57
2019-04-10T08:46:37.809Z,32.80
2019-04-10T08:49:07.810Z,30.49
2019-04-10T08:51:39.394Z,36.57
2019-04-10T08:54:09.990Z,33.63
2019-04-10T08:56:40.955Z,34.50
2019-04-10T08:59:13.842Z,33.13
2019-04-10T09:01:45.192Z,33.71
2019-04-10T09:04:14.830Z,33.70
2019-04-10T09:06:46.009Z,33.58
2019-04-10T09:09:15.517Z,31.39
2019-04-10T09:11:45.110Z,30.49
2019-04-10T09:14:14.622Z,31.11
2019-04-10T09:16:44.851Z,32.18
2019-04-10T09:19:16.286Z,32.65
2019-04-10T09:21:47.978Z,31.51
2019-04-10T09:24:17.546Z,32.63
2019-04-10T09:26:48.686Z,34.07
2019-04-10T09:29:21.879Z,33.45
2019-04-10T09:31:56.316Z,32.75
2019-04-10T09:34:27.994Z,32.06
2019-04-10T09:36:57.725Z,31.93
2019-04-10T09:39:29.598Z,30.85
2019-04-10T09:41:59.455Z,31.74
2019-04-10T09:44:29.762Z,33.06
2019-04-10T09:47:00.022Z,32.52
2019-04-10T09:49:38.973Z,32.58
2019-04-10T09:52:02.740Z,32.58
2019-04-10T09:54:32.957Z,31.56
2019-04-10T09:57:03.502Z,33.99
2019-04-10T09:59:39.278Z,34.01
2019-04-10T10:02:09.209Z,33.50
2019-04-10T10:04:39.733Z,33.19
2019-04-10T10:07:10.284Z,31.88
2019-04-10T10:09:43.111Z,32.15
2019-04-10T10:12:13.636Z,33.52
2019-04-10T10:14:44.317Z,32.31
2019-04-10T10:17:16.785Z,32.92
2019-04-10T10:19:48.492Z,31.69
2019-04-10T10:22:17.947Z,31.67
2019-04-10T10:24:47.347Z,32.51
2019-04-10T10:27:17.761Z,30.53
2019-04-10T10:29:48.102Z,29.35
2019-04-10T10:32:21.272Z,30.94
2019-04-10T10:34:50.891Z,35.73
2019-04-10T10:37:20.269Z,34.95
2019-04-10T10:39:52.835Z,35.01
2019-04-10T10:42:24.000Z,32.31
2019-04-10T10:44:58.481Z,35.00
2019-04-10T10:47:29.268Z,36.91
2019-04-10T10:50:01.547Z,36.05
2019-04-10T10:52:35.360Z,33.27
2019-04-10T10:55:07.542Z,33.92
2019-04-10T10:57:40.119Z,33.69
2019-04-10T11:00:13.086Z,37.07
2019-04-10T11:02:41.614Z,40.35
2019-04-10T11:05:13.748Z,45.43
2019-04-10T11:07:43.039Z,47.10
2019-04-10T11:10:19.655Z,48.97
2019-04-10T11:12:46.675Z,50.26
2019-04-10T11:15:18.565Z,51.92
2019-04-10T11:17:51.901Z,51.94
2019-04-10T11:20:21.891Z,52.11
2019-04-10T11:22:51.322Z,52.57
2019-04-10T11:25:22.146Z,52.71
2019-04-10T11:27:52.164Z,52.13
2019-04-10T11:30:22.435Z,51.01
2019-04-10T11:32:54.811Z,52.53
2019-04-10T11:35:25.275Z,54.06
2019-04-10T11:40:27.978Z,52.41
2019-04-10T11:43:04.756Z,53.47
2019-04-10T11:45:41.115Z,52.39
2019-04-10T11:48:05.995Z,52.00
2019-04-10T11:50:37.997Z,52.04
2019-04-10T11:53:09.699Z,53.12
2019-04-10T11:55:45.236Z,53.58
2019-04-10T11:58:11.260Z,53.86
2019-04-10T12:00:52.507Z,54.61
2019-04-10T12:03:18.570Z,55.87
2019-04-10T12:05:49.120Z,55.57
2019-04-10T12:08:45.263Z,56.53
2019-04-10T12:11:10.767Z,56.93
2019-04-10T12:13:24.136Z,57.47
2019-04-10T12:15:53.650Z,57.04
2019-04-10T12:18:26.838Z,56.16
2019-04-10T12:20:59.725Z,56.46
2019-04-10T12:23:29.286Z,57.07
2019-04-10T12:26:01.284Z,56.96
2019-04-10T12:28:30.742Z,56.95
2019-04-10T12:31:01.767Z,56.76
2019-04-10T12:33:32.354Z,57.37
2019-04-10T12:36:02.437Z,57.72
2019-04-10T12:38:39.575Z,57.31
2019-04-10T12:41:15.135Z,58.33
2019-04-10T12:43:45.216Z,57.85
2019-04-10T12:46:14.960Z,58.59
2019-04-10T12:48:45.647Z,58.09
2019-04-10T12:51:17.303Z,57.74
2019-04-10T12:53:47.769Z,58.45
2019-04-10T12:56:26.320Z,59.01
2019-04-10T12:58:55.680Z,59.72
2019-04-10T13:01:26.944Z,60.02
2019-04-10T13:03:59.919Z,61.12
2019-04-10T13:06:31.725Z,60.91
2019-04-10T13:09:12.439Z,60.73
2019-04-10T13:11:49.391Z,60.66
2019-04-10T13:14:20.143Z,61.46
2019-04-10T13:16:52.096Z,60.91
2019-04-10T13:19:22.020Z,62.41
2019-04-10T13:21:53.695Z,63.05
2019-04-10T13:24:23.774Z,62.47
2019-04-10T13:26:57.023Z,62.68
2019-04-10T13:29:30.024Z,63.14
2019-04-10T13:32:03.461Z,62.29
2019-04-10T13:34:33.373Z,62.58
2019-04-10T13:37:06.193Z,62.73
2019-04-10T13:39:35.745Z,62.71
2019-04-10T13:42:07.323Z,62.69
2019-04-10T13:44:40.443Z,61.96
2019-04-10T13:47:13.430Z,62.54
2019-04-10T13:49:44.203Z,62.66
2019-04-10T13:52:18.319Z,61.31
2019-04-10T13:54:50.930Z,60.54
2019-04-10T13:57:20.619Z,61.54
2019-04-10T13:59:50.105Z,61.75
2019-04-10T14:02:31.220Z,62.75
2019-04-10T14:05:05.254Z,63.52
2019-04-10T14:07:36.429Z,63.90
2019-04-10T14:10:07.386Z,63.98
2019-04-10T14:12:39.013Z,65.88
2019-04-10T14:15:09.745Z,65.54
2019-04-10T14:17:41.656Z,66.18
2019-04-10T14:20:17.423Z,67.47
2019-04-10T14:26:16.153Z,67.68
2019-04-10T14:28:47.835Z,69.04
2019-04-10T14:31:24.528Z,71.87
2019-04-10T14:33:54.604Z,70.08
2019-04-10T14:36:24.361Z,69.79
2019-04-10T14:38:55.019Z,72.72
2019-04-10T14:41:27.571Z,72.99
2019-04-10T14:43:58.931Z,74.95
2019-04-10T14:46:28.603Z,74.56
2019-04-10T14:49:00.664Z,75.06
2019-04-10T14:51:34.917Z,73.09
2019-04-10T14:54:07.777Z,71.48
2019-04-10T14:56:40.160Z,73.00
2019-04-10T14:59:11.985Z,74.99
2019-04-10T15:01:42.053Z,77.67
2019-04-10T15:04:12.874Z,78.59
2019-04-10T15:06:48.017Z,79.79
2019-04-10T15:09:26.030Z,80.97
2019-04-10T15:11:57.392Z,81.11
2019-04-10T15:14:30.687Z,80.43
2019-04-10T15:17:07.983Z,81.30
2019-04-10T15:19:41.209Z,81.19
2019-04-10T15:22:11.565Z,80.02
2019-04-10T15:24:42.720Z,77.97
2019-04-10T15:27:17.370Z,79.95
2019-04-10T15:29:49.015Z,77.80
2019-04-10T15:32:22.376Z,77.90
2019-04-10T15:34:53.619Z,77.84
2019-04-10T15:37:26.669Z,75.79
2019-04-10T15:40:12.245Z,75.46
2019-04-10T15:42:32.555Z,76.10
2019-04-10T15:45:08.387Z,76.07
2019-04-10T15:47:49.280Z,74.88
2019-04-10T15:50:13.878Z,74.41
2019-04-10T15:52:43.409Z,73.18
2019-04-10T15:55:16.601Z,73.19
2019-04-10T15:57:53.220Z,73.60
2019-04-10T16:00:19.314Z,74.37
2019-04-10T16:02:51.566Z,71.44
2019-04-10T16:05:24.281Z,70.29
2019-04-10T16:07:55.194Z,69.93
2019-04-10T16:10:46.202Z,70.37
2019-04-10T16:13:24.070Z,69.43
2019-04-10T16:15:54.703Z,70.39
2019-04-10T16:18:25.402Z,69.49
2019-04-10T16:20:55.559Z,69.27
2019-04-10T16:23:47.621Z,71.01
2019-04-10T16:26:18.793Z,71.22
2019-04-10T16:28:49.055Z,70.96
2019-04-10T16:31:21.579Z,71.25
2019-04-10T16:33:52.820Z,71.64
2019-04-10T16:36:23.402Z,71.84
2019-04-10T16:38:53.271Z,71.85
2019-04-10T16:41:26.875Z,71.99
2019-04-10T16:44:00.468Z,71.45
2019-04-10T16:46:33.717Z,70.68
2019-04-10T16:49:06.558Z,71.74
2019-04-10T16:51:39.209Z,71.50
2019-04-10T16:54:11.066Z,72.13
2019-04-10T16:56:40.642Z,71.70
2019-04-10T16:59:10.613Z,72.47
2019-04-10T17:01:39.891Z,72.41
2019-04-10T17:04:09.250Z,71.86
2019-04-10T17:06:38.809Z,73.76
2019-04-10T17:09:10.972Z,77.35
2019-04-10T17:11:40.953Z,79.79
2019-04-10T17:14:13.002Z,80.73
2019-04-10T17:16:43.970Z,80.58
2019-04-10T17:19:13.916Z,81.89
2019-04-10T17:21:47.742Z,82.04
2019-04-10T17:24:19.320Z,82.16
2019-04-10T17:26:48.962Z,82.89
2019-04-10T17:29:18.708Z,82.52
2019-04-10T17:31:49.306Z,81.65
2019-04-10T17:34:20.791Z,80.79
2019-04-10T17:36:51.475Z,81.83
2019-04-10T17:39:22.889Z,80.96
2019-04-10T17:41:53.342Z,81.79
2019-04-10T17:44:23.492Z,81.89
2019-04-10T17:46:53.377Z,82.02
2019-04-10T17:49:23.429Z,82.41
2019-04-10T17:51:52.937Z,82.61
2019-04-10T17:54:24.941Z,83.21
2019-04-10T17:56:54.898Z,82.94
2019-04-10T17:59:24.797Z,83.15
2019-04-10T18:01:57.009Z,82.94
2019-04-10T18:04:29.808Z,82.75
2019-04-10T18:06:59.640Z,83.27
2019-04-10T18:09:32.750Z,83.57
2019-04-10T18:12:03.963Z,83.37
2019-04-10T18:14:37.955Z,83.46
2019-04-10T18:17:07.904Z,83.70
2019-04-10T18:19:38.669Z,83.88
2019-04-10T18:22:10.226Z,83.90
2019-04-10T18:24:45.393Z,84.28
2019-04-10T18:27:18.440Z,84.06
2019-04-10T18:29:48.151Z,84.12
2019-04-10T18:32:19.020Z,84.52
2019-04-10T18:34:48.453Z,84.51
2019-04-10T18:37:22.017Z,85.05
2019-04-10T18:39:51.611Z,85.36
2019-04-10T18:42:26.612Z,85.46
2019-04-10T18:44:57.392Z,85.79
2019-04-10T18:47:27.154Z,85.74
2019-04-10T18:49:56.564Z,85.51
2019-04-10T18:52:29.588Z,84.96
2019-04-10T18:54:58.557Z,84.69
2019-04-10T18:57:27.871Z,85.17
2019-04-10T19:00:16.844Z,85.36
2019-04-10T19:03:05.480Z,85.62
2019-04-10T19:05:41.828Z,85.78
2019-04-10T19:08:13.319Z,85.20
2019-04-10T19:10:43.252Z,85.40
2019-04-10T19:13:13.046Z,85.20
2019-04-10T19:15:44.986Z,85.12
2019-04-10T19:18:16.828Z,85.30
2019-04-10T19:20:49.158Z,85.54
2019-04-10T19:23:19.475Z,85.92
2019-04-10T19:25:49.142Z,86.51
2019-04-10T19:28:28.021Z,86.56
2019-04-10T19:31:08.696Z,86.55
2019-04-10T19:33:31.367Z,86.36
2019-04-10T19:36:02.243Z,86.45
2019-04-10T19:38:31.754Z,86.12
2019-04-10T19:41:01.090Z,84.83
2019-04-10T19:43:35.783Z,84.08
2019-04-10T19:46:08.266Z,83.79
2019-04-10T19:48:39.378Z,81.70
2019-04-10T19:51:10.418Z,79.54
2019-04-10T19:53:44.365Z,76.95
2019-04-10T19:56:18.154Z,74.25
2019-04-10T19:58:49.008Z,74.66
2019-04-10T20:01:19.091Z,73.54
2019-04-10T20:03:48.436Z,75.18
2019-04-10T20:06:22.317Z,76.26
2019-04-10T20:08:52.944Z,75.36
2019-04-10T20:11:37.560Z,74.63
2019-04-10T20:14:01.472Z,73.64
2019-04-10T20:16:33.360Z,73.19
2019-04-10T20:19:05.420Z,73.67
2019-04-10T20:21:36.616Z,73.55
2019-04-10T20:24:08.354Z,73.75
2019-04-10T20:26:39.152Z,73.49
2019-04-10T20:29:08.660Z,73.81
2019-04-10T20:31:41.781Z,74.38
2019-04-10T20:34:13.628Z,73.08
2019-04-10T20:36:44.832Z,72.41
2019-04-10T20:39:14.935Z,73.07
2019-04-10T20:41:52.343Z,70.91
2019-04-10T20:44:20.719Z,71.91
2019-04-10T20:46:50.739Z,72.09
2019-04-10T20:49:20.445Z,72.10
2019-04-10T20:51:50.459Z,71.10
2019-04-10T20:54:28.706Z,71.01
2019-04-10T20:56:59.200Z,71.70
2019-04-10T20:59:28.849Z,72.48
2019-04-10T21:01:58.147Z,72.27
2019-04-10T21:04:29.678Z,71.19
2019-04-10T21:06:59.206Z,70.53
2019-04-10T21:09:29.765Z,70.23
2019-04-10T21:12:05.284Z,69.78
2019-04-10T21:14:30.294Z,68.98
2019-04-10T21:17:00.383Z,69.13
2019-04-10T21:19:29.691Z,69.09
2019-04-10T21:21:59.540Z,69.71
2019-04-10T21:24:29.462Z,69.23
2019-04-10T21:27:01.224Z,69.56
2019-04-10T21:29:48.466Z,68.10
2019-04-10T21:32:46.063Z,68.45
2019-04-10T21:35:18.767Z,70.19
2019-04-10T21:37:48.690Z,70.21
2019-04-10T21:40:18.656Z,69.35
2019-04-10T21:42:51.910Z,70.83
2019-04-10T21:45:22.277Z,71.93
2019-04-10T21:47:54.315Z,71.37
2019-04-10T21:50:26.782Z,70.89
2019-04-10T21:53:03.958Z,70.81
2019-04-10T21:55:33.841Z,72.16
2019-04-10T21:58:06.122Z,72.76
2019-04-10T22:00:52.922Z,72.28
2019-04-10T22:03:23.847Z,71.78
2019-04-10T22:06:03.625Z,72.13
2019-04-10T22:08:50.229Z,72.02
2019-04-10T22:11:25.329Z,71.33
2019-04-10T22:13:54.884Z,70.89
2019-04-10T22:16:28.166Z,70.62
2019-04-10T22:18:58.166Z,71.13
2019-04-10T22:21:27.562Z,71.77
2019-04-10T22:23:56.938Z,71.70
2019-04-10T22:26:29.798Z,72.61
2019-04-10T22:28:59.131Z,72.88
2019-04-10T22:31:29.535Z,72.86
2019-04-10T22:33:59.020Z,72.21
2019-04-10T22:36:31.176Z,71.90
2019-04-10T22:39:00.758Z,71.18
2019-04-10T22:41:33.766Z,71.89
2019-04-10T22:44:03.302Z,72.15
2019-04-10T22:46:34.231Z,72.12
2019-04-10T22:49:04.269Z,72.32
2019-04-10T22:51:33.571Z,71.97
2019-04-10T22:54:06.113Z,71.76
2019-04-10T22:56:35.819Z,72.99
2019-04-10T22:59:08.117Z,73.98
2019-04-10T23:01:39.874Z,74.26
2019-04-10T23:04:12.241Z,74.05
2019-04-10T23:06:41.892Z,73.67
2019-04-10T23:09:20.190Z,74.28
2019-04-10T23:11:50.249Z,72.56
2019-04-10T23:14:20.786Z,73.02
2019-04-10T23:16:50.548Z,73.78
2019-04-10T23:19:25.727Z,73.82
2019-04-10T23:22:00.964Z,73.30
2019-04-10T23:24:30.316Z,72.70
2019-04-10T23:26:59.759Z,72.50
2019-04-10T23:29:29.908Z,72.09
2019-04-10T23:32:04.193Z,71.76
2019-04-10T23:34:35.356Z,72.18
2019-04-10T23:37:07.091Z,72.06
2019-04-10T23:39:40.732Z,72.38
2019-04-10T23:42:12.847Z,72.30
2019-04-10T23:44:42.921Z,72.23
2019-04-10T23:47:12.276Z,71.86
2019-04-10T23:49:44.148Z,72.99
2019-04-10T23:52:14.464Z,73.32
2019-04-10T23:54:43.833Z,73.82
2019-04-10T23:57:13.594Z,73.64
2019-04-10T23:59:44.834Z,74.33
